createdAt,value
2022-09-13T00:01:10.213Z,58.92
2022-09-13T00:03:37.733Z,60.75
2022-09-13T00:06:13.931Z,60.12
2022-09-13T00:08:41.209Z,60.22
2022-09-13T00:11:08.408Z,60.57
2022-09-13T00:13:35.120Z,59.50
2022-09-13T00:16:04.111Z,58.58
2022-09-13T00:18:30.987Z,58.75
2022-09-13T00:21:15.547Z,57.87
2022-09-13T00:23:46.636Z,58.42
2022-09-13T00:26:16.166Z,58.84
2022-09-13T00:28:43.156Z,59.08
2022-09-13T00:31:10.050Z,59.27
2022-09-13T00:33:36.957Z,59.91
2022-09-13T00:36:08.598Z,60.01
2022-09-13T00:38:39.556Z,59.78
2022-09-13T00:41:09.180Z,59.76
2022-09-13T00:43:49.610Z,60.61
2022-09-13T00:46:49.378Z,61.03
2022-09-13T00:49:19.661Z,60.69
2022-09-13T00:51:51.100Z,62.12
2022-09-13T00:54:22.373Z,61.34
2022-09-13T00:56:55.054Z,60.41
2022-09-13T00:59:33.653Z,60.88
2022-09-13T01:02:02.397Z,62.42
2022-09-13T01:04:31.847Z,62.97
2022-09-13T01:07:03.048Z,62.15
2022-09-13T01:09:33.394Z,61.87
2022-09-13T01:12:08.330Z,62.07
2022-09-13T01:14:36.098Z,61.89
2022-09-13T01:17:04.087Z,62.06
2022-09-13T01:19:30.861Z,61.54
2022-09-13T01:22:24.198Z,61.20
2022-09-13T01:25:15.846Z,61.93
2022-09-13T01:28:01.013Z,62.04
2022-09-13T01:30:45.916Z,61.59
2022-09-13T01:33:19.899Z,60.95
2022-09-13T01:35:46.476Z,60.54
2022-09-13T01:38:49.626Z,60.04
2022-09-13T01:42:00.452Z,60.56
2022-09-13T01:44:42.063Z,59.99
2022-09-13T01:47:24.726Z,60.31
2022-09-13T01:50:21.378Z,60.11
2022-09-13T01:52:58.105Z,60.52
2022-09-13T01:55:45.287Z,60.85
2022-09-13T01:58:17.795Z,60.99
2022-09-13T02:00:54.608Z,60.71
2022-09-13T02:03:48.078Z,60.37
2022-09-13T02:06:21.447Z,60.65
2022-09-13T02:08:54.413Z,61.22
2022-09-13T02:11:23.010Z,61.08
2022-09-13T02:13:52.157Z,60.66
2022-09-13T02:16:33.950Z,59.50
2022-09-13T02:19:11.046Z,57.74
2022-09-13T02:21:44.853Z,59.30
2022-09-13T02:24:17.016Z,58.28
2022-09-13T02:26:47.129Z,58.76
2022-09-13T02:29:18.558Z,58.58
2022-09-13T02:32:16.749Z,64.31
2022-09-13T02:34:52.676Z,62.70
2022-09-13T02:37:20.417Z,61.62
2022-09-13T02:39:53.617Z,59.70
2022-09-13T02:42:23.557Z,61.83
2022-09-13T02:44:54.155Z,60.25
2022-09-13T02:47:36.025Z,59.49
2022-09-13T02:50:14.774Z,60.20
2022-09-13T02:52:50.267Z,59.37
2022-09-13T02:55:42.668Z,60.12
2022-09-13T02:58:26.288Z,60.71
2022-09-13T03:00:54.901Z,60.02
2022-09-13T03:03:22.157Z,59.99
2022-09-13T03:05:48.811Z,60.25
2022-09-13T03:08:18.659Z,61.38
2022-09-13T03:11:00.296Z,61.13
2022-09-13T03:13:55.047Z,61.54
2022-09-13T03:16:38.147Z,61.03
2022-09-13T03:19:24.348Z,60.06
2022-09-13T03:22:11.369Z,60.44
2022-09-13T03:25:03.093Z,59.95
2022-09-13T03:27:48.718Z,60.39
2022-09-13T03:30:17.581Z,61.30
2022-09-13T03:33:02.776Z,60.90
2022-09-13T03:35:53.173Z,61.16
2022-09-13T03:38:25.261Z,61.56
2022-09-13T03:41:17.686Z,61.36
2022-09-13T03:43:46.976Z,60.84
2022-09-13T03:46:32.658Z,60.52
2022-09-13T03:49:07.075Z,59.18
2022-09-13T03:51:34.140Z,58.64
2022-09-13T03:54:04.603Z,59.04
2022-09-13T03:56:31.470Z,59.10
2022-09-13T03:58:58.316Z,59.36
2022-09-13T04:01:25.548Z,59.16
2022-09-13T04:03:56.631Z,60.53
2022-09-13T04:06:23.767Z,60.46
2022-09-13T04:08:50.932Z,61.64
2022-09-13T04:11:17.608Z,61.27
2022-09-13T04:13:44.270Z,61.47
2022-09-13T04:16:11.002Z,61.58
2022-09-13T04:18:37.937Z,63.21
2022-09-13T04:21:04.968Z,63.67
2022-09-13T04:23:31.950Z,63.24
2022-09-13T04:26:06.419Z,62.87
2022-09-13T04:28:33.459Z,62.58
2022-09-13T04:31:02.136Z,61.85
2022-09-13T04:33:28.808Z,61.88
2022-09-13T04:35:59.664Z,61.70
2022-09-13T04:38:27.127Z,61.05
2022-09-13T04:40:55.206Z,61.72
2022-09-13T04:43:22.542Z,61.94
2022-09-13T04:45:49.567Z,62.31
2022-09-13T04:48:16.935Z,62.80
2022-09-13T04:50:45.029Z,63.99
2022-09-13T04:53:12.026Z,63.02
2022-09-13T04:55:39.132Z,62.07
2022-09-13T04:58:06.132Z,61.66
2022-09-13T05:00:33.600Z,59.87
2022-09-13T05:03:00.396Z,60.01
2022-09-13T05:05:28.969Z,59.70
2022-09-13T05:07:56.016Z,59.12
2022-09-13T05:10:22.660Z,58.82
2022-09-13T05:12:49.291Z,57.77
2022-09-13T05:15:16.542Z,58.30
2022-09-13T05:17:43.358Z,58.98
2022-09-13T05:20:10.783Z,60.53
2022-09-13T05:22:37.527Z,59.53
2022-09-13T05:25:04.652Z,58.75
2022-09-13T05:27:31.398Z,57.85
2022-09-13T05:29:58.264Z,56.62
2022-09-13T05:32:25.048Z,54.78
2022-09-13T05:34:51.698Z,52.62
2022-09-13T05:37:19.038Z,51.43
2022-09-13T05:40:07.824Z,50.33
2022-09-13T05:42:32.462Z,50.12
2022-09-13T05:44:59.146Z,50.36
2022-09-13T05:47:25.822Z,51.97
2022-09-13T05:50:09.488Z,53.11
2022-09-13T05:52:39.102Z,52.36
2022-09-13T05:55:06.496Z,52.80
2022-09-13T05:57:33.236Z,53.62
2022-09-13T06:00:00.102Z,54.21
2022-09-13T06:02:27.043Z,55.92
2022-09-13T06:04:53.901Z,57.60
2022-09-13T06:07:20.710Z,57.30
2022-09-13T06:09:47.838Z,56.81
2022-09-13T06:12:14.555Z,57.45
2022-09-13T06:14:41.502Z,57.22
2022-09-13T06:17:08.176Z,57.27
2022-09-13T06:19:35.415Z,58.34
2022-09-13T06:22:03.227Z,58.52
2022-09-13T06:24:29.917Z,57.77
2022-09-13T06:26:57.447Z,57.39
2022-09-13T06:29:24.257Z,56.96
2022-09-13T06:31:51.116Z,56.36
2022-09-13T06:34:17.953Z,55.58
2022-09-13T06:36:44.947Z,55.34
2022-09-13T06:39:11.688Z,54.71
2022-09-13T06:41:39.048Z,53.43
2022-09-13T06:44:05.790Z,51.23
2022-09-13T06:46:35.202Z,52.98
2022-09-13T06:49:04.910Z,52.76
2022-09-13T06:51:33.370Z,51.34
2022-09-13T06:54:00.537Z,49.53
2022-09-13T06:56:29.267Z,49.16
2022-09-13T06:58:58.665Z,48.83
2022-09-13T07:01:46.163Z,48.77
2022-09-13T07:04:17.432Z,48.64
2022-09-13T07:06:47.858Z,46.94
2022-09-13T07:09:21.683Z,46.40
2022-09-13T07:11:54.590Z,43.89
2022-09-13T07:14:24.583Z,42.42
2022-09-13T07:16:52.364Z,41.16
2022-09-13T07:19:22.947Z,39.51
2022-09-13T07:21:50.579Z,41.95
2022-09-13T07:24:18.034Z,38.46
2022-09-13T07:26:46.886Z,38.66
2022-09-13T07:29:19.515Z,38.63
2022-09-13T07:31:48.567Z,38.77
2022-09-13T07:34:20.727Z,38.77
2022-09-13T07:36:48.296Z,39.92
2022-09-13T07:39:20.316Z,39.35
2022-09-13T07:41:49.098Z,37.37
2022-09-13T07:44:15.947Z,37.37
2022-09-13T07:46:45.699Z,38.38
2022-09-13T07:49:14.616Z,39.80
2022-09-13T07:51:43.479Z,37.92
2022-09-13T07:54:15.149Z,39.59
2022-09-13T07:56:42.289Z,40.29
2022-09-13T07:59:14.748Z,38.76
2022-09-13T08:01:50.661Z,36.57
2022-09-13T08:04:19.845Z,40.22
2022-09-13T08:06:47.113Z,40.88
2022-09-13T08:09:15.219Z,40.94
2022-09-13T08:23:24.833Z,37.05
2022-09-13T08:25:52.121Z,37.05
2022-09-13T08:28:27.474Z,37.76
2022-09-13T08:30:55.007Z,37.47
2022-09-13T08:33:22.315Z,35.78
2022-09-13T08:35:53.776Z,35.88
2022-09-13T08:38:20.741Z,36.54
2022-09-13T08:40:54.966Z,36.28
2022-09-13T08:43:29.704Z,33.49
2022-09-13T08:46:29.434Z,33.28
2022-09-13T08:49:03.781Z,36.39
2022-09-13T08:51:40.644Z,35.58
2022-09-13T08:54:13.002Z,33.82
2022-09-13T08:57:02.712Z,35.40
2022-09-13T09:00:22.077Z,37.94
2022-09-13T09:02:58.200Z,37.30
2022-09-13T09:05:29.204Z,34.77
2022-09-13T09:08:03.341Z,32.98
2022-09-13T09:10:41.753Z,33.46
2022-09-13T09:13:24.653Z,30.47
2022-09-13T09:16:03.402Z,32.13
2022-09-13T09:18:35.533Z,34.43
2022-09-13T09:21:07.139Z,32.64
2022-09-13T09:23:49.809Z,30.95
2022-09-13T09:26:29.914Z,31.59
2022-09-13T09:29:01.433Z,31.35
2022-09-13T09:31:38.931Z,28.39
2022-09-13T09:34:08.536Z,32.03
2022-09-13T09:36:46.424Z,28.88
2022-09-13T09:39:16.577Z,28.48
2022-09-13T09:41:45.100Z,30.18
2022-09-13T09:44:22.713Z,29.89
2022-09-13T09:46:59.996Z,29.92
2022-09-13T09:49:51.351Z,32.61
2022-09-13T09:52:28.611Z,31.79
2022-09-13T09:55:11.320Z,30.54
2022-09-13T09:57:57.078Z,31.50
2022-09-13T10:00:27.396Z,28.67
2022-09-13T10:02:57.776Z,27.26
2022-09-13T10:05:26.495Z,27.01
2022-09-13T10:08:01.159Z,27.95
2022-09-13T10:10:44.877Z,25.85
2022-09-13T10:13:22.809Z,25.58
2022-09-13T10:16:01.505Z,25.49
2022-09-13T10:18:45.799Z,25.19
2022-09-13T10:21:18.634Z,24.81
2022-09-13T10:23:50.989Z,24.65
2022-09-13T10:26:29.102Z,24.38
2022-09-13T10:29:13.823Z,25.54
2022-09-13T10:31:44.004Z,25.11
2022-09-13T10:34:21.257Z,25.47
2022-09-13T10:37:03.071Z,25.37
2022-09-13T10:39:35.613Z,25.34
2022-09-13T10:42:10.564Z,23.44
2022-09-13T10:44:52.504Z,25.26
2022-09-13T10:47:21.582Z,25.30
2022-09-13T10:49:51.665Z,25.37
2022-09-13T10:52:44.358Z,25.37
2022-09-13T10:55:20.572Z,25.48
2022-09-13T10:57:49.717Z,24.14
2022-09-13T11:00:20.516Z,23.90
2022-09-13T11:03:16.470Z,22.90
2022-09-13T11:05:51.199Z,27.19
2022-09-13T11:08:36.682Z,25.34
2022-09-13T11:11:31.817Z,25.31
2022-09-13T11:14:12.464Z,25.62
2022-09-13T11:17:15.921Z,25.37
2022-09-13T11:20:08.084Z,25.03
2022-09-13T11:22:34.889Z,26.20
2022-09-13T11:25:34.303Z,25.06
2022-09-13T11:28:15.211Z,24.20
2022-09-13T11:30:59.483Z,24.74
2022-09-13T11:33:45.812Z,25.51
2022-09-13T11:36:28.814Z,26.53
2022-09-13T11:39:25.279Z,24.94
2022-09-13T11:42:18.800Z,25.50
2022-09-13T11:44:54.550Z,27.40
2022-09-13T11:47:38.513Z,29.56
2022-09-13T11:50:30.151Z,30.52
2022-09-13T11:53:00.322Z,28.26
2022-09-13T11:55:38.355Z,28.79
2022-09-13T11:58:15.441Z,28.54
2022-09-13T12:00:47.636Z,28.62
2022-09-13T12:03:23.489Z,26.40
2022-09-13T12:06:15.430Z,26.58
2022-09-13T12:08:50.092Z,27.86
2022-09-13T12:11:37.887Z,29.30
2022-09-13T12:14:14.401Z,27.71
2022-09-13T12:16:46.275Z,27.86
2022-09-13T12:19:28.274Z,27.16
2022-09-13T12:22:00.303Z,26.50
2022-09-13T12:24:52.401Z,25.79
2022-09-13T12:27:43.402Z,26.88
2022-09-13T12:30:17.621Z,26.16
2022-09-13T12:32:46.230Z,26.00
2022-09-13T12:35:33.921Z,26.29
2022-09-13T12:38:31.851Z,28.24
2022-09-13T12:41:36.186Z,27.58
2022-09-13T12:44:23.399Z,27.68
2022-09-13T12:47:13.533Z,27.47
2022-09-13T12:49:47.651Z,28.66
2022-09-13T12:52:30.855Z,28.62
2022-09-13T12:55:46.154Z,28.10
2022-09-13T12:58:49.104Z,28.26
2022-09-13T13:01:20.708Z,29.17
2022-09-13T13:03:58.118Z,28.61
2022-09-13T13:06:37.328Z,29.20
2022-09-13T13:09:06.410Z,29.84
2022-09-13T13:11:44.521Z,29.95
2022-09-13T13:14:29.550Z,29.44
2022-09-13T13:17:45.871Z,29.40
2022-09-13T13:20:39.132Z,31.05
2022-09-13T13:23:25.092Z,31.60
2022-09-13T13:26:14.018Z,31.60
2022-09-13T13:28:44.050Z,31.04
2022-09-13T13:31:32.657Z,34.89
2022-09-13T13:34:14.141Z,31.27
2022-09-13T13:36:41.159Z,33.94
2022-09-13T13:39:13.909Z,32.90
2022-09-13T13:42:06.429Z,32.37
2022-09-13T13:44:33.562Z,31.87
2022-09-13T13:47:09.429Z,32.40
2022-09-13T13:49:39.253Z,32.16
2022-09-13T13:52:08.851Z,33.96
2022-09-13T13:54:45.598Z,33.00
2022-09-13T13:57:41.351Z,32.70
2022-09-13T14:00:21.382Z,32.27
2022-09-13T14:02:51.155Z,32.77
2022-09-13T14:05:24.339Z,32.82
2022-09-13T14:08:01.696Z,32.92
2022-09-13T14:10:50.086Z,33.50
2022-09-13T14:13:52.325Z,34.06
2022-09-13T14:16:43.870Z,36.69
2022-09-13T14:19:24.407Z,33.69
2022-09-13T14:22:21.092Z,33.89
2022-09-13T14:24:56.591Z,32.93
2022-09-13T14:27:25.372Z,33.47
2022-09-13T14:29:55.150Z,33.75
2022-09-13T14:32:35.033Z,34.67
2022-09-13T14:35:20.859Z,34.15
2022-09-13T14:37:47.761Z,35.02
2022-09-13T14:40:22.544Z,34.34
2022-09-13T14:42:51.870Z,33.47
2022-09-13T14:45:25.426Z,35.10
2022-09-13T14:48:07.418Z,36.57
2022-09-13T14:50:39.705Z,37.80
2022-09-13T14:53:12.512Z,38.23
2022-09-13T14:56:07.553Z,37.65
2022-09-13T14:58:45.718Z,37.75
2022-09-13T15:01:19.845Z,37.72
2022-09-13T15:03:48.869Z,36.80
2022-09-13T15:06:27.832Z,37.09
2022-09-13T15:09:00.891Z,39.35
2022-09-13T15:11:34.698Z,38.54
2022-09-13T15:14:38.506Z,37.73
2022-09-13T15:17:08.163Z,38.46
2022-09-13T15:19:49.829Z,37.42
2022-09-13T15:22:30.487Z,37.74
2022-09-13T15:25:02.482Z,39.37
2022-09-13T15:27:43.178Z,39.37
2022-09-13T15:30:31.110Z,39.35
2022-09-13T15:33:10.199Z,39.39
2022-09-13T15:35:42.730Z,39.69
2022-09-13T15:38:31.813Z,40.22
2022-09-13T15:41:03.022Z,40.95
2022-09-13T15:43:31.497Z,42.71
2022-09-13T15:46:00.276Z,42.62
2022-09-13T15:48:33.118Z,42.61
2022-09-13T15:51:18.587Z,42.59
2022-09-13T15:53:47.029Z,42.14
2022-09-13T15:56:20.286Z,41.67
2022-09-13T15:58:48.014Z,42.66
2022-09-13T16:01:16.573Z,43.63
2022-09-13T16:03:43.450Z,43.12
2022-09-13T16:06:10.582Z,43.46
2022-09-13T16:08:39.015Z,43.52
2022-09-13T16:11:07.147Z,43.73
2022-09-13T16:13:34.581Z,43.92
2022-09-13T16:16:01.910Z,43.14
2022-09-13T16:18:28.864Z,43.67
2022-09-13T16:20:55.894Z,44.06
2022-09-13T16:23:22.833Z,45.08
2022-09-13T16:25:57.172Z,44.84
2022-09-13T16:28:24.244Z,45.26
2022-09-13T16:30:51.753Z,45.31
2022-09-13T16:33:19.992Z,45.69
2022-09-13T16:35:47.793Z,46.77
2022-09-13T16:38:14.942Z,47.05
2022-09-13T16:40:43.563Z,48.09
2022-09-13T16:43:10.452Z,48.26
2022-09-13T16:45:41.553Z,48.84
2022-09-13T16:48:08.878Z,49.43
2022-09-13T16:50:39.231Z,49.89
2022-09-13T16:53:06.118Z,50.11
2022-09-13T16:55:33.126Z,49.12
2022-09-13T16:57:59.952Z,49.07
2022-09-13T17:00:28.856Z,48.82
2022-09-13T17:02:56.566Z,48.86
2022-09-13T17:05:24.722Z,49.37
2022-09-13T17:07:52.266Z,49.44
2022-09-13T17:10:19.998Z,49.74
2022-09-13T17:12:46.913Z,50.00
2022-09-13T17:15:14.126Z,49.36
2022-09-13T17:17:41.172Z,48.95
2022-09-13T17:20:12.289Z,49.09
2022-09-13T17:22:39.471Z,50.28
2022-09-13T17:25:08.091Z,49.13
2022-09-13T17:27:35.332Z,49.36
2022-09-13T17:30:05.072Z,49.73
2022-09-13T17:32:32.101Z,50.91
2022-09-13T17:34:59.897Z,50.86
2022-09-13T17:37:27.061Z,50.50
2022-09-13T17:39:54.319Z,49.73
2022-09-13T17:42:23.355Z,51.25
2022-09-13T17:44:50.868Z,51.29
2022-09-13T17:47:17.797Z,51.56
2022-09-13T17:49:45.811Z,51.46
2022-09-13T17:52:13.631Z,52.35
2022-09-13T17:54:41.059Z,53.09
2022-09-13T17:57:08.110Z,52.44
2022-09-13T17:59:35.874Z,52.32
2022-09-13T18:02:02.929Z,52.49
2022-09-13T18:04:29.960Z,53.67
2022-09-13T18:06:56.877Z,52.90
2022-09-13T18:09:24.836Z,52.74
2022-09-13T18:11:52.010Z,53.14
2022-09-13T18:14:24.521Z,53.27
2022-09-13T18:16:55.874Z,52.77
2022-09-13T18:19:39.493Z,52.93
2022-09-13T18:22:11.512Z,52.84
2022-09-13T18:24:38.376Z,53.11
2022-09-13T18:27:05.391Z,53.27
2022-09-13T18:29:33.211Z,53.42
2022-09-13T18:32:00.273Z,54.43
2022-09-13T18:34:29.261Z,54.50
2022-09-13T18:36:56.531Z,55.09
2022-09-13T18:39:23.737Z,54.81
2022-09-13T18:41:50.874Z,54.17
2022-09-13T18:44:18.980Z,53.92
2022-09-13T18:46:47.230Z,54.42
2022-09-13T18:49:15.663Z,54.18
2022-09-13T18:51:44.485Z,54.30
2022-09-13T18:54:14.967Z,54.48
2022-09-13T18:56:42.416Z,54.94
2022-09-13T18:59:10.422Z,54.33
2022-09-13T19:01:41.736Z,54.75
2022-09-13T19:04:12.936Z,54.65
2022-09-13T19:06:46.458Z,54.04
2022-09-13T19:09:16.016Z,53.93
2022-09-13T19:11:48.393Z,53.84
2022-09-13T19:14:18.425Z,53.62
2022-09-13T19:16:45.742Z,53.22
2022-09-13T19:19:16.674Z,52.69
2022-09-13T19:21:44.396Z,52.59
2022-09-13T19:24:18.489Z,52.73
2022-09-13T19:26:47.814Z,53.54
2022-09-13T19:29:17.388Z,53.91
2022-09-13T19:31:48.191Z,53.21
2022-09-13T19:34:16.129Z,53.69
2022-09-13T19:36:44.634Z,53.62
2022-09-13T19:39:12.042Z,54.22
2022-09-13T19:41:40.591Z,54.07
2022-09-13T19:44:08.686Z,53.99
2022-09-13T19:46:39.044Z,53.92
2022-09-13T19:49:08.676Z,55.69
2022-09-13T19:51:37.053Z,55.11
2022-09-13T19:54:05.222Z,55.46
2022-09-13T19:56:34.909Z,56.02
2022-09-13T19:59:01.929Z,56.76
2022-09-13T20:01:34.206Z,56.54
2022-09-13T20:04:03.577Z,56.07
2022-09-13T20:06:38.582Z,55.49
2022-09-13T20:09:06.330Z,55.35
2022-09-13T20:11:36.633Z,56.32
2022-09-13T20:14:06.750Z,56.78
2022-09-13T20:16:35.075Z,57.62
2022-09-13T20:19:10.510Z,57.08
2022-09-13T20:21:46.042Z,57.13
2022-09-13T20:24:12.796Z,56.86
2022-09-13T20:26:39.566Z,56.54
2022-09-13T20:29:07.663Z,57.00
2022-09-13T20:31:36.781Z,57.06
2022-09-13T20:34:07.144Z,57.63
2022-09-13T20:36:35.866Z,57.66
2022-09-13T20:39:03.892Z,57.72
2022-09-13T20:41:31.732Z,57.75
2022-09-13T20:44:02.159Z,57.76
2022-09-13T20:46:31.431Z,58.62
2022-09-13T20:48:58.757Z,58.74
2022-09-13T20:51:29.585Z,58.20
2022-09-13T20:54:00.871Z,57.36
2022-09-13T20:56:29.033Z,57.63
2022-09-13T20:58:58.444Z,57.68
2022-09-13T21:01:27.199Z,57.41
2022-09-13T21:03:55.309Z,57.16
2022-09-13T21:06:25.391Z,57.42
2022-09-13T21:08:53.490Z,57.66
2022-09-13T21:11:33.681Z,56.93
2022-09-13T21:14:09.063Z,57.09
2022-09-13T21:16:41.425Z,57.26
2022-09-13T21:19:09.227Z,56.82
2022-09-13T21:21:38.525Z,56.60
2022-09-13T21:24:09.961Z,56.75
2022-09-13T21:26:37.876Z,56.39
2022-09-13T21:29:04.672Z,57.00
2022-09-13T21:31:33.764Z,56.80
2022-09-13T21:36:35.944Z,57.32
2022-09-13T21:39:04.259Z,57.57
2022-09-13T21:41:32.003Z,56.89
2022-09-13T21:43:58.772Z,57.06
2022-09-13T21:46:28.369Z,57.12
2022-09-13T21:48:56.271Z,56.78
2022-09-13T21:51:33.708Z,56.89
2022-09-13T21:54:02.430Z,59.16
2022-09-13T21:56:31.995Z,58.69
2022-09-13T21:58:59.925Z,57.77
2022-09-13T22:01:30.218Z,58.58
2022-09-13T22:06:25.291Z,57.99
2022-09-13T22:08:56.918Z,58.31
2022-09-13T22:11:26.779Z,58.36
2022-09-13T22:13:54.389Z,57.82
2022-09-13T22:16:29.576Z,57.82
2022-09-13T22:18:59.245Z,57.58
2022-09-13T22:21:27.948Z,58.74
2022-09-13T22:23:55.233Z,58.08
2022-09-13T22:26:25.468Z,58.51
2022-09-13T22:28:54.720Z,58.57
2022-09-13T22:31:32.729Z,58.67
2022-09-13T22:34:01.432Z,58.98
2022-09-13T22:36:29.209Z,58.08
2022-09-13T22:38:56.241Z,58.33
2022-09-13T22:41:25.999Z,59.02
2022-09-13T22:43:53.409Z,59.70
2022-09-13T22:46:23.202Z,59.84
2022-09-13T22:48:50.645Z,59.11
2022-09-13T22:51:19.141Z,57.75
2022-09-13T22:53:48.200Z,57.73
2022-09-13T22:56:24.511Z,58.24
2022-09-13T22:58:56.441Z,58.47
2022-09-13T23:01:24.236Z,58.56
2022-09-13T23:03:51.337Z,58.30
2022-09-13T23:06:21.177Z,59.59
2022-09-13T23:08:48.524Z,59.29
2022-09-13T23:11:22.443Z,59.06
2022-09-13T23:13:51.388Z,59.46
2022-09-13T23:16:26.926Z,59.64
2022-09-13T23:18:54.940Z,59.07
2022-09-13T23:21:23.173Z,61.18
2022-09-13T23:23:50.425Z,59.36
2022-09-13T23:26:20.038Z,59.58
2022-09-13T23:28:47.715Z,59.08
2022-09-13T23:31:15.619Z,59.57
2022-09-13T23:33:45.011Z,59.33
2022-09-13T23:36:13.607Z,59.71
2022-09-13T23:38:41.633Z,60.22
2022-09-13T23:41:10.146Z,60.36
2022-09-13T23:43:37.012Z,60.56
2022-09-13T23:46:03.787Z,59.28
2022-09-13T23:48:30.867Z,59.39
2022-09-13T23:51:02.139Z,59.21
2022-09-13T23:53:29.707Z,59.48
2022-09-13T23:55:56.909Z,59.82
2022-09-13T23:58:23.753Z,60.08
